sensor_id;sensor_type;location;lat;lon;timestamp;P1;P2;P0
72854;PMS7003;60991;51.278;22.550;2023-07-29T00:00:02;5.75;4.25;3.00
72854;PMS7003;60991;51.278;22.550;2023-07-29T00:01:35;5.00;5.00;3.25
72854;PMS7003;60991;51.278;22.550;2023-07-29T00:03:06;4.25;3.50;3.00
72854;PMS7003;60991;51.278;22.550;2023-07-29T00:04:36;3.75;3.75;3.00
72854;PMS7003;60991;51.278;22.550;2023-07-29T00:06:06;6.25;5.00;4.00
72854;PMS7003;60991;51.278;22.550;2023-07-29T00:07:36;4.25;4.25;4.00
72854;PMS7003;60991;51.278;22.550;2023-07-29T00:09:07;5.00;5.00;3.00
72854;PMS7003;60991;51.278;22.550;2023-07-29T00:10:37;5.50;5.00;4.00
72854;PMS7003;60991;51.278;22.550;2023-07-29T00:12:07;5.00;5.00;3.50
72854;PMS7003;60991;51.278;22.550;2023-07-29T00:13:37;4.50;4.50;4.00
72854;PMS7003;60991;51.278;22.550;2023-07-29T00:15:08;3.50;3.50;2.50
72854;PMS7003;60991;51.278;22.550;2023-07-29T00:16:38;6.50;5.75;4.25
72854;PMS7003;60991;51.278;22.550;2023-07-29T00:18:09;4.00;4.00;4.00
72854;PMS7003;60991;51.278;22.550;2023-07-29T00:19:39;4.75;4.75;3.50
72854;PMS7003;60991;51.278;22.550;2023-07-29T00:21:09;4.25;4.00;2.50
72854;PMS7003;60991;51.278;22.550;2023-07-29T00:22:39;4.25;3.75;3.00
72854;PMS7003;60991;51.278;22.550;2023-07-29T00:24:09;4.00;4.00;3.25
72854;PMS7003;60991;51.278;22.550;2023-07-29T00:25:40;6.25;5.25;3.75
72854;PMS7003;60991;51.278;22.550;2023-07-29T00:27:10;6.00;4.75;4.00
72854;PMS7003;60991;51.278;22.550;2023-07-29T00:28:40;3.50;3.50;2.50
72854;PMS7003;60991;51.278;22.550;2023-07-29T00:30:10;4.25;4.25;3.25
72854;PMS7003;60991;51.278;22.550;2023-07-29T00:31:41;5.00;5.00;3.00
72854;PMS7003;60991;51.278;22.550;2023-07-29T00:33:11;5.00;5.00;4.50
72854;PMS7003;60991;51.278;22.550;2023-07-29T00:34:41;5.75;5.75;4.00
72854;PMS7003;60991;51.278;22.550;2023-07-29T00:36:11;1.50;1.50;1.00
72854;PMS7003;60991;51.278;22.550;2023-07-29T00:37:42;6.25;6.25;4.75
72854;PMS7003;60991;51.278;22.550;2023-07-29T00:39:12;3.50;3.50;2.25
72854;PMS7003;60991;51.278;22.550;2023-07-29T00:40:42;6.00;5.00;4.00
72854;PMS7003;60991;51.278;22.550;2023-07-29T00:42:12;3.25;3.00;3.00
72854;PMS7003;60991;51.278;22.550;2023-07-29T00:43:43;5.00;5.00;4.00
72854;PMS7003;60991;51.278;22.550;2023-07-29T00:45:13;5.25;5.25;3.50
72854;PMS7003;60991;51.278;22.550;2023-07-29T00:46:43;3.75;3.75;2.50
72854;PMS7003;60991;51.278;22.550;2023-07-29T00:48:15;5.25;5.00;4.00
72854;PMS7003;60991;51.278;22.550;2023-07-29T00:49:46;6.50;5.50;4.00
72854;PMS7003;60991;51.278;22.550;2023-07-29T00:51:17;3.25;3.25;3.25
72854;PMS7003;60991;51.278;22.550;2023-07-29T00:52:48;6.75;5.25;4.75
72854;PMS7003;60991;51.278;22.550;2023-07-29T00:54:19;4.75;4.75;3.75
72854;PMS7003;60991;51.278;22.550;2023-07-29T00:55:49;5.50;5.50;4.25
72854;PMS7003;60991;51.278;22.550;2023-07-29T00:57:19;4.25;4.25;4.00
72854;PMS7003;60991;51.278;22.550;2023-07-29T00:58:51;5.25;5.25;3.25
72854;PMS7003;60991;51.278;22.550;2023-07-29T01:03:49;3.00;3.00;2.00
72854;PMS7003;60991;51.278;22.550;2023-07-29T01:05:20;5.00;5.00;4.00
72854;PMS7003;60991;51.278;22.550;2023-07-29T01:06:58;4.50;4.50;3.25
72854;PMS7003;60991;51.278;22.550;2023-07-29T01:08:59;7.50;7.50;4.50
72854;PMS7003;60991;51.278;22.550;2023-07-29T01:10:51;5.50;5.25;4.25
72854;PMS7003;60991;51.278;22.550;2023-07-29T01:12:28;5.00;5.00;4.00
72854;PMS7003;60991;51.278;22.550;2023-07-29T01:16:17;8.00;6.00;4.00
72854;PMS7003;60991;51.278;22.550;2023-07-29T01:17:59;6.00;6.00;3.75
72854;PMS7003;60991;51.278;22.550;2023-07-29T01:19:41;7.50;5.00;3.75
72854;PMS7003;60991;51.278;22.550;2023-07-29T01:21:18;5.00;5.00;3.50
72854;PMS7003;60991;51.278;22.550;2023-07-29T01:22:49;5.00;5.00;4.00
72854;PMS7003;60991;51.278;22.550;2023-07-29T01:24:20;7.25;4.50;3.00
72854;PMS7003;60991;51.278;22.550;2023-07-29T01:25:50;6.00;6.00;4.25
72854;PMS7003;60991;51.278;22.550;2023-07-29T01:27:20;6.25;5.00;4.00
72854;PMS7003;60991;51.278;22.550;2023-07-29T01:28:50;6.50;5.00;4.75
72854;PMS7003;60991;51.278;22.550;2023-07-29T01:30:22;7.00;5.50;4.75
72854;PMS7003;60991;51.278;22.550;2023-07-29T01:31:56;6.00;6.00;5.00
72854;PMS7003;60991;51.278;22.550;2023-07-29T01:33:37;6.00;5.50;4.25
72854;PMS7003;60991;51.278;22.550;2023-07-29T01:37:16;4.75;4.75;3.50
72854;PMS7003;60991;51.278;22.550;2023-07-29T01:38:52;7.50;5.50;4.00
72854;PMS7003;60991;51.278;22.550;2023-07-29T01:40:24;5.25;3.00;2.50
72854;PMS7003;60991;51.278;22.550;2023-07-29T01:41:57;6.00;6.00;5.00
72854;PMS7003;60991;51.278;22.550;2023-07-29T01:43:30;6.00;5.25;4.50
72854;PMS7003;60991;51.278;22.550;2023-07-29T01:45:01;5.00;5.00;4.00
72854;PMS7003;60991;51.278;22.550;2023-07-29T01:46:33;4.25;4.25;3.75
72854;PMS7003;60991;51.278;22.550;2023-07-29T01:48:04;6.50;5.50;4.00
72854;PMS7003;60991;51.278;22.550;2023-07-29T01:49:35;7.00;6.00;4.00
72854;PMS7003;60991;51.278;22.550;2023-07-29T01:51:05;5.50;5.50;3.75
72854;PMS7003;60991;51.278;22.550;2023-07-29T01:52:36;7.25;6.00;5.00
72854;PMS7003;60991;51.278;22.550;2023-07-29T01:54:06;7.50;6.00;4.00
72854;PMS7003;60991;51.278;22.550;2023-07-29T01:55:36;6.25;5.00;3.00
72854;PMS7003;60991;51.278;22.550;2023-07-29T01:57:06;6.00;6.00;4.00
72854;PMS7003;60991;51.278;22.550;2023-07-29T01:58:37;7.00;7.00;5.25
72854;PMS7003;60991;51.278;22.550;2023-07-29T02:00:07;4.25;4.25;3.50
72854;PMS7003;60991;51.278;22.550;2023-07-29T02:01:38;4.25;4.25;3.00
72854;PMS7003;60991;51.278;22.550;2023-07-29T02:03:08;5.75;5.75;4.00
72854;PMS7003;60991;51.278;22.550;2023-07-29T02:04:38;8.25;6.00;4.00
72854;PMS7003;60991;51.278;22.550;2023-07-29T02:06:08;8.75;7.00;5.00
72854;PMS7003;60991;51.278;22.550;2023-07-29T02:07:38;7.25;6.00;5.00
72854;PMS7003;60991;51.278;22.550;2023-07-29T02:09:09;7.75;7.25;5.00
72854;PMS7003;60991;51.278;22.550;2023-07-29T02:10:39;6.50;6.50;5.25
72854;PMS7003;60991;51.278;22.550;2023-07-29T02:12:09;7.25;6.25;5.00
72854;PMS7003;60991;51.278;22.550;2023-07-29T02:13:39;9.00;7.25;5.25
72854;PMS7003;60991;51.278;22.550;2023-07-29T02:15:10;7.25;7.25;4.00
72854;PMS7003;60991;51.278;22.550;2023-07-29T02:16:40;8.25;8.25;5.25
72854;PMS7003;60991;51.278;22.550;2023-07-29T02:18:10;7.00;7.00;5.00
72854;PMS7003;60991;51.278;22.550;2023-07-29T02:19:40;7.75;7.75;6.00
72854;PMS7003;60991;51.278;22.550;2023-07-29T02:21:11;8.00;8.00;5.25
72854;PMS7003;60991;51.278;22.550;2023-07-29T02:22:41;5.50;5.50;4.75
72854;PMS7003;60991;51.278;22.550;2023-07-29T02:24:11;5.75;5.75;4.75
72854;PMS7003;60991;51.278;22.550;2023-07-29T02:25:41;8.75;8.75;6.25
72854;PMS7003;60991;51.278;22.550;2023-07-29T02:27:11;6.00;6.00;5.00
72854;PMS7003;60991;51.278;22.550;2023-07-29T02:28:42;9.00;7.25;4.75
72854;PMS7003;60991;51.278;22.550;2023-07-29T02:30:12;9.00;9.00;5.00
72854;PMS7003;60991;51.278;22.550;2023-07-29T02:31:42;9.25;8.00;6.25
72854;PMS7003;60991;51.278;22.550;2023-07-29T02:33:12;10.75;6.00;4.00
72854;PMS7003;60991;51.278;22.550;2023-07-29T02:34:42;6.25;6.25;5.00
72854;PMS7003;60991;51.278;22.550;2023-07-29T02:36:13;8.00;8.00;6.00
72854;PMS7003;60991;51.278;22.550;2023-07-29T02:37:43;6.50;6.50;5.75
72854;PMS7003;60991;51.278;22.550;2023-07-29T02:39:13;6.00;6.00;4.00
72854;PMS7003;60991;51.278;22.550;2023-07-29T02:40:44;10.00;6.75;5.50
72854;PMS7003;60991;51.278;22.550;2023-07-29T02:42:14;8.00;6.00;4.50
72854;PMS7003;60991;51.278;22.550;2023-07-29T02:43:48;8.75;8.00;6.00
72854;PMS7003;60991;51.278;22.550;2023-07-29T02:45:19;8.25;7.75;5.75
72854;PMS7003;60991;51.278;22.550;2023-07-29T02:46:49;7.25;7.25;5.25
72854;PMS7003;60991;51.278;22.550;2023-07-29T02:48:20;8.75;7.00;5.75
72854;PMS7003;60991;51.278;22.550;2023-07-29T02:49:50;11.75;8.75;6.00
72854;PMS7003;60991;51.278;22.550;2023-07-29T02:51:20;8.50;6.00;4.25
72854;PMS7003;60991;51.278;22.550;2023-07-29T02:52:50;7.75;7.25;6.00
72854;PMS7003;60991;51.278;22.550;2023-07-29T02:54:20;7.25;7.25;5.25
72854;PMS7003;60991;51.278;22.550;2023-07-29T02:55:51;8.50;8.50;6.00
72854;PMS7003;60991;51.278;22.550;2023-07-29T02:57:21;10.00;10.00;6.50
72854;PMS7003;60991;51.278;22.550;2023-07-29T02:58:51;10.00;9.00;5.50
72854;PMS7003;60991;51.278;22.550;2023-07-29T03:00:21;9.75;9.75;6.25
72854;PMS7003;60991;51.278;22.550;2023-07-29T03:01:52;11.00;9.50;6.00
72854;PMS7003;60991;51.278;22.550;2023-07-29T03:03:22;10.75;9.75;6.00
72854;PMS7003;60991;51.278;22.550;2023-07-29T03:04:52;12.50;9.00;6.25
72854;PMS7003;60991;51.278;22.550;2023-07-29T03:06:23;9.00;9.00;7.00
72854;PMS7003;60991;51.278;22.550;2023-07-29T03:07:53;8.75;7.00;5.25
72854;PMS7003;60991;51.278;22.550;2023-07-29T03:09:24;10.50;9.50;6.00
72854;PMS7003;60991;51.278;22.550;2023-07-29T03:10:54;12.00;8.75;5.75
72854;PMS7003;60991;51.278;22.550;2023-07-29T03:12:25;9.50;9.50;6.00
72854;PMS7003;60991;51.278;22.550;2023-07-29T03:13:55;1.00;0.00;0.00
72854;PMS7003;60991;51.278;22.550;2023-07-29T03:15:25;11.25;10.25;7.00
72854;PMS7003;60991;51.278;22.550;2023-07-29T03:16:56;9.00;8.00;6.00
72854;PMS7003;60991;51.278;22.550;2023-07-29T03:18:26;9.75;8.50;6.25
72854;PMS7003;60991;51.278;22.550;2023-07-29T03:19:56;5.75;5.75;4.50
72854;PMS7003;60991;51.278;22.550;2023-07-29T03:21:26;9.00;9.00;7.75
72854;PMS7003;60991;51.278;22.550;2023-07-29T03:22:56;6.50;6.50;5.00
72854;PMS7003;60991;51.278;22.550;2023-07-29T03:24:27;11.00;8.25;6.00
72854;PMS7003;60991;51.278;22.550;2023-07-29T03:25:57;7.50;7.50;6.00
72854;PMS7003;60991;51.278;22.550;2023-07-29T03:27:29;9.00;9.00;7.50
72854;PMS7003;60991;51.278;22.550;2023-07-29T03:28:59;9.50;7.75;5.25
72854;PMS7003;60991;51.278;22.550;2023-07-29T03:30:29;12.75;9.25;8.00
72854;PMS7003;60991;51.278;22.550;2023-07-29T03:31:59;4.25;4.25;2.75
72854;PMS7003;60991;51.278;22.550;2023-07-29T03:33:30;11.25;8.50;5.75
72854;PMS7003;60991;51.278;22.550;2023-07-29T03:35:00;11.50;11.50;8.00
72854;PMS7003;60991;51.278;22.550;2023-07-29T03:36:30;6.25;6.25;4.75
72854;PMS7003;60991;51.278;22.550;2023-07-29T03:38:00;8.00;8.00;6.25
72854;PMS7003;60991;51.278;22.550;2023-07-29T03:39:30;9.75;8.00;5.25
72854;PMS7003;60991;51.278;22.550;2023-07-29T03:41:01;9.25;8.00;6.00
72854;PMS7003;60991;51.278;22.550;2023-07-29T03:42:31;8.75;8.00;7.00
72854;PMS7003;60991;51.278;22.550;2023-07-29T03:44:01;12.00;10.75;6.50
72854;PMS7003;60991;51.278;22.550;2023-07-29T03:45:31;10.25;10.25;8.00
72854;PMS7003;60991;51.278;22.550;2023-07-29T03:47:02;9.00;9.00;6.25
72854;PMS7003;60991;51.278;22.550;2023-07-29T03:48:32;9.50;9.00;7.00
72854;PMS7003;60991;51.278;22.550;2023-07-29T03:50:03;6.50;6.50;4.75
72854;PMS7003;60991;51.278;22.550;2023-07-29T03:51:33;9.00;8.25;6.00
72854;PMS7003;60991;51.278;22.550;2023-07-29T03:53:03;10.25;10.00;6.00
72854;PMS7003;60991;51.278;22.550;2023-07-29T03:54:34;9.25;7.25;5.75
72854;PMS7003;60991;51.278;22.550;2023-07-29T03:56:04;13.25;10.00;6.75
72854;PMS7003;60991;51.278;22.550;2023-07-29T03:57:34;9.75;8.75;7.00
72854;PMS7003;60991;51.278;22.550;2023-07-29T03:59:05;10.00;9.00;7.00
72854;PMS7003;60991;51.278;22.550;2023-07-29T04:00:35;8.25;8.00;7.00
72854;PMS7003;60991;51.278;22.550;2023-07-29T04:02:05;10.75;10.50;7.50
72854;PMS7003;60991;51.278;22.550;2023-07-29T04:03:36;15.00;13.25;9.00
72854;PMS7003;60991;51.278;22.550;2023-07-29T04:05:06;15.75;13.75;8.75
72854;PMS7003;60991;51.278;22.550;2023-07-29T04:06:36;12.50;10.50;7.00
72854;PMS7003;60991;51.278;22.550;2023-07-29T04:08:07;15.00;14.25;9.00
72854;PMS7003;60991;51.278;22.550;2023-07-29T04:09:37;12.75;12.25;8.75
72854;PMS7003;60991;51.278;22.550;2023-07-29T04:11:07;11.00;11.00;6.00
72854;PMS7003;60991;51.278;22.550;2023-07-29T04:12:37;13.75;12.75;7.50
72854;PMS7003;60991;51.278;22.550;2023-07-29T04:14:08;12.00;11.50;8.00
72854;PMS7003;60991;51.278;22.550;2023-07-29T04:15:38;17.75;14.00;8.25
72854;PMS7003;60991;51.278;22.550;2023-07-29T04:17:08;15.00;15.00;9.25
72854;PMS7003;60991;51.278;22.550;2023-07-29T04:18:38;19.25;17.50;10.75
72854;PMS7003;60991;51.278;22.550;2023-07-29T04:20:09;18.50;17.50;11.00
72854;PMS7003;60991;51.278;22.550;2023-07-29T04:21:40;24.50;21.75;13.25
72854;PMS7003;60991;51.278;22.550;2023-07-29T04:23:10;21.50;20.00;12.25
72854;PMS7003;60991;51.278;22.550;2023-07-29T04:24:40;20.50;20.25;12.75
72854;PMS7003;60991;51.278;22.550;2023-07-29T04:26:14;22.75;20.75;14.50
72854;PMS7003;60991;51.278;22.550;2023-07-29T04:27:44;23.25;21.50;13.75
72854;PMS7003;60991;51.278;22.550;2023-07-29T04:29:14;21.75;21.75;15.00
72854;PMS7003;60991;51.278;22.550;2023-07-29T04:30:44;21.50;20.00;13.00
72854;PMS7003;60991;51.278;22.550;2023-07-29T04:32:15;22.75;22.75;13.25
72854;PMS7003;60991;51.278;22.550;2023-07-29T04:33:45;21.00;16.00;10.25
72854;PMS7003;60991;51.278;22.550;2023-07-29T04:35:15;17.00;16.25;12.00
72854;PMS7003;60991;51.278;22.550;2023-07-29T04:36:46;21.75;21.25;11.25
72854;PMS7003;60991;51.278;22.550;2023-07-29T04:38:16;20.00;20.00;13.25
72854;PMS7003;60991;51.278;22.550;2023-07-29T04:39:47;26.75;26.75;13.75
72854;PMS7003;60991;51.278;22.550;2023-07-29T04:41:17;23.50;21.75;11.75
72854;PMS7003;60991;51.278;22.550;2023-07-29T04:42:47;25.00;24.00;15.25
72854;PMS7003;60991;51.278;22.550;2023-07-29T04:44:17;23.00;20.00;9.00
72854;PMS7003;60991;51.278;22.550;2023-07-29T04:45:47;21.25;20.75;12.00
72854;PMS7003;60991;51.278;22.550;2023-07-29T04:47:18;22.50;16.50;11.25
72854;PMS7003;60991;51.278;22.550;2023-07-29T04:48:48;22.00;21.25;13.50
72854;PMS7003;60991;51.278;22.550;2023-07-29T04:50:18;20.25;18.25;11.00
72854;PMS7003;60991;51.278;22.550;2023-07-29T04:51:48;19.50;18.50;12.00
72854;PMS7003;60991;51.278;22.550;2023-07-29T04:53:19;28.75;23.50;13.00
72854;PMS7003;60991;51.278;22.550;2023-07-29T04:54:50;22.00;20.25;14.00
72854;PMS7003;60991;51.278;22.550;2023-07-29T04:56:20;18.50;18.50;11.25
72854;PMS7003;60991;51.278;22.550;2023-07-29T04:57:51;24.50;21.25;13.50
72854;PMS7003;60991;51.278;22.550;2023-07-29T04:59:21;23.00;22.00;13.50
72854;PMS7003;60991;51.278;22.550;2023-07-29T05:00:51;23.25;22.00;12.00
72854;PMS7003;60991;51.278;22.550;2023-07-29T05:02:21;25.25;23.25;12.75
72854;PMS7003;60991;51.278;22.550;2023-07-29T05:03:51;22.50;20.00;13.50
72854;PMS7003;60991;51.278;22.550;2023-07-29T05:05:22;19.75;19.50;14.00
72854;PMS7003;60991;51.278;22.550;2023-07-29T05:06:52;18.00;17.25;12.00
72854;PMS7003;60991;51.278;22.550;2023-07-29T05:08:22;20.25;17.25;11.50
72854;PMS7003;60991;51.278;22.550;2023-07-29T05:09:52;22.50;20.75;12.50
72854;PMS7003;60991;51.278;22.550;2023-07-29T05:11:22;22.25;21.25;12.50
72854;PMS7003;60991;51.278;22.550;2023-07-29T05:12:53;26.25;22.75;13.50
72854;PMS7003;60991;51.278;22.550;2023-07-29T05:14:23;24.25;19.25;11.25
72854;PMS7003;60991;51.278;22.550;2023-07-29T05:15:53;28.50;25.50;14.75
72854;PMS7003;60991;51.278;22.550;2023-07-29T05:17:23;18.25;17.50;11.00
72854;PMS7003;60991;51.278;22.550;2023-07-29T05:18:53;22.25;22.25;15.00
72854;PMS7003;60991;51.278;22.550;2023-07-29T05:20:24;26.50;22.00;12.50
72854;PMS7003;60991;51.278;22.550;2023-07-29T05:21:54;26.25;23.25;14.00
72854;PMS7003;60991;51.278;22.550;2023-07-29T05:23:24;26.25;19.50;11.75
72854;PMS7003;60991;51.278;22.550;2023-07-29T05:24:54;24.50;24.50;14.00
72854;PMS7003;60991;51.278;22.550;2023-07-29T05:26:24;22.00;20.50;11.00
72854;PMS7003;60991;51.278;22.550;2023-07-29T05:27:55;22.50;20.75;14.00
72854;PMS7003;60991;51.278;22.550;2023-07-29T05:29:25;22.50;22.50;12.00
72854;PMS7003;60991;51.278;22.550;2023-07-29T05:30:55;23.50;22.50;12.75
72854;PMS7003;60991;51.278;22.550;2023-07-29T05:32:25;23.50;19.50;13.00
72854;PMS7003;60991;51.278;22.550;2023-07-29T05:33:56;23.00;21.75;11.25
72854;PMS7003;60991;51.278;22.550;2023-07-29T05:35:26;22.75;22.75;11.75
72854;PMS7003;60991;51.278;22.550;2023-07-29T05:36:56;28.50;25.75;13.00
72854;PMS7003;60991;51.278;22.550;2023-07-29T05:38:26;20.00;20.00;12.00
72854;PMS7003;60991;51.278;22.550;2023-07-29T05:39:56;22.25;22.25;13.50
72854;PMS7003;60991;51.278;22.550;2023-07-29T05:41:27;25.00;23.00;13.25
72854;PMS7003;60991;51.278;22.550;2023-07-29T05:42:57;28.00;25.25;13.25
72854;PMS7003;60991;51.278;22.550;2023-07-29T05:44:27;27.00;24.00;15.00
72854;PMS7003;60991;51.278;22.550;2023-07-29T05:45:57;24.00;23.75;15.00
72854;PMS7003;60991;51.278;22.550;2023-07-29T05:47:31;31.25;26.75;14.75
72854;PMS7003;60991;51.278;22.550;2023-07-29T05:49:01;22.50;21.25;13.00
72854;PMS7003;60991;51.278;22.550;2023-07-29T05:50:31;19.00;19.00;9.00
72854;PMS7003;60991;51.278;22.550;2023-07-29T05:52:01;27.75;25.00;12.25
72854;PMS7003;60991;51.278;22.550;2023-07-29T05:53:32;29.75;29.00;15.50
72854;PMS7003;60991;51.278;22.550;2023-07-29T05:55:02;21.50;20.25;12.00
72854;PMS7003;60991;51.278;22.550;2023-07-29T05:56:32;20.00;19.75;13.00
72854;PMS7003;60991;51.278;22.550;2023-07-29T05:58:02;23.50;23.50;13.25
72854;PMS7003;60991;51.278;22.550;2023-07-29T05:59:33;25.00;22.00;14.00
72854;PMS7003;60991;51.278;22.550;2023-07-29T06:01:03;19.25;18.75;12.50
72854;PMS7003;60991;51.278;22.550;2023-07-29T06:02:33;24.50;22.00;13.50
72854;PMS7003;60991;51.278;22.550;2023-07-29T06:04:03;24.50;21.75;14.25
72854;PMS7003;60991;51.278;22.550;2023-07-29T06:05:33;23.25;23.00;12.50
72854;PMS7003;60991;51.278;22.550;2023-07-29T06:07:04;21.75;20.25;12.25
72854;PMS7003;60991;51.278;22.550;2023-07-29T06:08:35;26.00;19.75;12.75
72854;PMS7003;60991;51.278;22.550;2023-07-29T06:10:05;23.75;21.75;13.00
72854;PMS7003;60991;51.278;22.550;2023-07-29T06:11:35;24.50;21.50;11.00
72854;PMS7003;60991;51.278;22.550;2023-07-29T06:13:06;19.50;18.00;12.00
72854;PMS7003;60991;51.278;22.550;2023-07-29T06:14:36;20.25;19.75;12.25
72854;PMS7003;60991;51.278;22.550;2023-07-29T06:16:06;24.25;22.50;13.00
72854;PMS7003;60991;51.278;22.550;2023-07-29T06:17:36;21.50;20.75;12.50
72854;PMS7003;60991;51.278;22.550;2023-07-29T06:19:06;23.75;21.50;12.50
72854;PMS7003;60991;51.278;22.550;2023-07-29T06:20:37;20.25;19.25;12.00
72854;PMS7003;60991;51.278;22.550;2023-07-29T06:22:09;23.00;21.75;13.50
72854;PMS7003;60991;51.278;22.550;2023-07-29T06:23:40;17.75;16.50;12.00
72854;PMS7003;60991;51.278;22.550;2023-07-29T06:25:10;28.25;23.25;11.75
72854;PMS7003;60991;51.278;22.550;2023-07-29T06:26:40;23.25;23.25;14.50
72854;PMS7003;60991;51.278;22.550;2023-07-29T06:28:10;21.50;21.25;12.25
72854;PMS7003;60991;51.278;22.550;2023-07-29T06:29:40;18.00;18.00;10.75
72854;PMS7003;60991;51.278;22.550;2023-07-29T06:31:11;20.75;20.25;11.75
72854;PMS7003;60991;51.278;22.550;2023-07-29T06:32:41;18.25;18.25;12.25
72854;PMS7003;60991;51.278;22.550;2023-07-29T06:34:11;18.25;16.25;9.25
72854;PMS7003;60991;51.278;22.550;2023-07-29T06:35:41;27.50;24.00;13.50
72854;PMS7003;60991;51.278;22.550;2023-07-29T06:37:11;19.50;17.75;11.00
72854;PMS7003;60991;51.278;22.550;2023-07-29T06:38:42;23.25;23.25;12.50
72854;PMS7003;60991;51.278;22.550;2023-07-29T06:40:12;18.75;18.25;11.25
72854;PMS7003;60991;51.278;22.550;2023-07-29T06:41:42;21.50;21.50;12.75
72854;PMS7003;60991;51.278;22.550;2023-07-29T06:43:12;19.00;17.00;10.25
72854;PMS7003;60991;51.278;22.550;2023-07-29T06:44:42;18.50;16.75;10.00
72854;PMS7003;60991;51.278;22.550;2023-07-29T06:46:13;15.50;15.50;9.50
72854;PMS7003;60991;51.278;22.550;2023-07-29T06:47:44;21.25;21.25;12.00
72854;PMS7003;60991;51.278;22.550;2023-07-29T06:49:14;23.50;23.00;13.25
72854;PMS7003;60991;51.278;22.550;2023-07-29T06:50:45;21.75;18.00;11.00
72854;PMS7003;60991;51.278;22.550;2023-07-29T06:52:15;20.25;19.50;12.00
72854;PMS7003;60991;51.278;22.550;2023-07-29T06:53:45;23.25;22.00;12.00
72854;PMS7003;60991;51.278;22.550;2023-07-29T06:55:15;21.00;19.75;12.25
72854;PMS7003;60991;51.278;22.550;2023-07-29T06:56:46;24.75;22.00;13.00
72854;PMS7003;60991;51.278;22.550;2023-07-29T06:58:16;19.75;19.75;11.25
72854;PMS7003;60991;51.278;22.550;2023-07-29T06:59:46;26.50;22.00;13.50
72854;PMS7003;60991;51.278;22.550;2023-07-29T07:01:16;26.50;24.50;13.50
72854;PMS7003;60991;51.278;22.550;2023-07-29T07:02:46;27.75;25.75;15.75
72854;PMS7003;60991;51.278;22.550;2023-07-29T07:04:17;20.25;19.50;11.00
72854;PMS7003;60991;51.278;22.550;2023-07-29T07:05:47;20.25;19.00;11.50
72854;PMS7003;60991;51.278;22.550;2023-07-29T07:07:17;21.50;20.25;12.25
72854;PMS7003;60991;51.278;22.550;2023-07-29T07:08:47;20.00;19.75;13.00
72854;PMS7003;60991;51.278;22.550;2023-07-29T07:10:17;23.50;19.75;10.75
72854;PMS7003;60991;51.278;22.550;2023-07-29T07:11:48;21.75;19.75;11.50
72854;PMS7003;60991;51.278;22.550;2023-07-29T07:13:18;17.25;16.75;11.50
72854;PMS7003;60991;51.278;22.550;2023-07-29T07:14:48;18.75;18.25;12.75
72854;PMS7003;60991;51.278;22.550;2023-07-29T07:16:18;20.50;20.25;13.25
72854;PMS7003;60991;51.278;22.550;2023-07-29T07:17:48;17.25;16.50;10.75
72854;PMS7003;60991;51.278;22.550;2023-07-29T07:19:19;20.00;20.00;12.75
72854;PMS7003;60991;51.278;22.550;2023-07-29T07:20:49;20.25;20.25;11.00
72854;PMS7003;60991;51.278;22.550;2023-07-29T07:22:20;25.50;22.00;12.75
72854;PMS7003;60991;51.278;22.550;2023-07-29T07:23:50;24.00;21.25;12.25
72854;PMS7003;60991;51.278;22.550;2023-07-29T07:25:20;19.25;17.75;10.50
72854;PMS7003;60991;51.278;22.550;2023-07-29T07:26:51;18.25;18.25;10.25
72854;PMS7003;60991;51.278;22.550;2023-07-29T07:28:21;17.50;16.25;8.75
72854;PMS7003;60991;51.278;22.550;2023-07-29T07:29:51;15.25;15.25;9.50
72854;PMS7003;60991;51.278;22.550;2023-07-29T07:31:21;23.50;21.75;13.00
72854;PMS7003;60991;51.278;22.550;2023-07-29T07:32:52;21.50;21.25;13.50
72854;PMS7003;60991;51.278;22.550;2023-07-29T07:34:22;17.50;17.50;11.00
72854;PMS7003;60991;51.278;22.550;2023-07-29T07:35:53;20.75;19.75;10.75
72854;PMS7003;60991;51.278;22.550;2023-07-29T07:37:23;24.75;18.75;10.00
72854;PMS7003;60991;51.278;22.550;2023-07-29T07:38:53;20.00;18.75;10.00
72854;PMS7003;60991;51.278;22.550;2023-07-29T07:40:23;19.75;18.00;10.75
72854;PMS7003;60991;51.278;22.550;2023-07-29T07:41:53;15.50;13.25;7.50
72854;PMS7003;60991;51.278;22.550;2023-07-29T07:43:24;19.00;18.50;11.50
72854;PMS7003;60991;51.278;22.550;2023-07-29T07:44:54;21.25;18.00;10.00
72854;PMS7003;60991;51.278;22.550;2023-07-29T07:46:25;17.75;16.75;12.25
72854;PMS7003;60991;51.278;22.550;2023-07-29T07:47:55;17.75;17.00;11.00
72854;PMS7003;60991;51.278;22.550;2023-07-29T07:49:26;16.25;13.00;8.50
72854;PMS7003;60991;51.278;22.550;2023-07-29T07:50:56;16.00;14.75;10.25
72854;PMS7003;60991;51.278;22.550;2023-07-29T07:52:26;16.25;14.25;10.25
72854;PMS7003;60991;51.278;22.550;2023-07-29T07:53:57;14.00;10.25;4.25
72854;PMS7003;60991;51.278;22.550;2023-07-29T07:55:28;16.75;15.25;9.00
72854;PMS7003;60991;51.278;22.550;2023-07-29T07:56:58;16.50;14.50;8.50
72854;PMS7003;60991;51.278;22.550;2023-07-29T07:58:28;20.25;15.75;9.00
72854;PMS7003;60991;51.278;22.550;2023-07-29T07:59:58;20.75;19.00;10.50
72854;PMS7003;60991;51.278;22.550;2023-07-29T08:01:33;22.00;17.00;10.25
72854;PMS7003;60991;51.278;22.550;2023-07-29T08:03:07;17.50;17.50;10.25
72854;PMS7003;60991;51.278;22.550;2023-07-29T08:04:37;17.25;16.50;9.75
72854;PMS7003;60991;51.278;22.550;2023-07-29T08:06:07;17.25;15.75;9.25
72854;PMS7003;60991;51.278;22.550;2023-07-29T08:07:37;12.00;12.00;9.25
72854;PMS7003;60991;51.278;22.550;2023-07-29T08:09:08;16.75;13.75;8.25
72854;PMS7003;60991;51.278;22.550;2023-07-29T08:10:38;14.25;14.25;8.75
72854;PMS7003;60991;51.278;22.550;2023-07-29T08:12:08;19.50;16.75;8.75
72854;PMS7003;60991;51.278;22.550;2023-07-29T08:13:38;17.00;14.25;7.50
72854;PMS7003;60991;51.278;22.550;2023-07-29T08:15:08;15.25;15.25;10.00
72854;PMS7003;60991;51.278;22.550;2023-07-29T08:16:39;12.25;11.75;7.00
72854;PMS7003;60991;51.278;22.550;2023-07-29T08:18:09;18.00;15.75;9.00
72854;PMS7003;60991;51.278;22.550;2023-07-29T08:19:39;19.00;17.25;10.00
72854;PMS7003;60991;51.278;22.550;2023-07-29T08:21:09;17.00;14.50;8.75
72854;PMS7003;60991;51.278;22.550;2023-07-29T08:22:39;16.50;14.75;9.00
72854;PMS7003;60991;51.278;22.550;2023-07-29T08:24:10;19.75;17.00;10.75
72854;PMS7003;60991;51.278;22.550;2023-07-29T08:25:40;19.25;15.00;8.75
72854;PMS7003;60991;51.278;22.550;2023-07-29T08:27:10;17.50;15.50;9.00
72854;PMS7003;60991;51.278;22.550;2023-07-29T08:28:40;18.75;17.25;10.00
72854;PMS7003;60991;51.278;22.550;2023-07-29T08:30:10;16.50;15.50;10.25
72854;PMS7003;60991;51.278;22.550;2023-07-29T08:31:41;17.50;17.00;10.25
72854;PMS7003;60991;51.278;22.550;2023-07-29T08:33:11;20.50;18.25;10.25
72854;PMS7003;60991;51.278;22.550;2023-07-29T08:34:41;16.00;16.00;8.75
72854;PMS7003;60991;51.278;22.550;2023-07-29T08:36:11;15.75;13.50;8.50
72854;PMS7003;60991;51.278;22.550;2023-07-29T08:37:42;15.25;14.25;8.00
72854;PMS7003;60991;51.278;22.550;2023-07-29T08:39:12;16.75;16.75;8.75